createdAt,value
2023-05-15T00:01:27.132Z,0.073
2023-05-15T00:03:27.428Z,0.072
2023-05-15T00:05:27.581Z,0.071
2023-05-15T00:07:27.492Z,0.070
2023-05-15T00:09:27.137Z,0.070
2023-05-15T00:11:27.342Z,0.070
2023-05-15T00:13:30.787Z,0.066
2023-05-15T00:15:32.056Z,0.066
2023-05-15T00:17:27.616Z,0.066
2023-05-15T00:19:27.150Z,0.065
2023-05-15T00:21:27.169Z,0.063
2023-05-15T00:23:27.133Z,0.064
2023-05-15T00:25:27.652Z,0.062
2023-05-15T00:27:27.668Z,0.062
2023-05-15T00:29:27.426Z,0.063
2023-05-15T00:31:27.453Z,0.062
2023-05-15T00:33:27.156Z,0.059
2023-05-15T00:35:27.527Z,0.058
2023-05-15T00:37:28.002Z,0.059
2023-05-15T00:39:27.266Z,0.061
2023-05-15T00:41:27.284Z,0.060
2023-05-15T00:43:44.735Z,0.061
2023-05-15T00:45:44.783Z,0.062
2023-05-15T00:47:44.892Z,0.061
2023-05-15T00:49:44.741Z,0.060
2023-05-15T00:51:44.650Z,0.059
2023-05-15T00:53:44.801Z,0.055
2023-05-15T00:55:44.822Z,0.058
2023-05-15T00:57:44.681Z,0.058
2023-05-15T00:59:45.162Z,0.059
2023-05-15T01:01:44.729Z,0.056
2023-05-15T01:03:44.725Z,0.055
2023-05-15T01:05:44.766Z,0.054
2023-05-15T01:07:44.798Z,0.058
2023-05-15T01:09:44.753Z,0.057
2023-05-15T01:11:44.688Z,0.056
2023-05-15T01:13:44.714Z,0.056
2023-05-15T01:15:46.522Z,0.056
2023-05-15T01:17:44.931Z,0.058
2023-05-15T01:19:44.939Z,0.060
2023-05-15T01:21:44.672Z,0.062
2023-05-15T01:23:44.831Z,0.064
2023-05-15T01:25:44.724Z,0.064
2023-05-15T01:27:44.790Z,0.064
2023-05-15T01:29:44.777Z,0.062
2023-05-15T01:31:45.134Z,0.062
2023-05-15T01:33:44.796Z,0.062
2023-05-15T01:35:44.669Z,0.063
2023-05-15T01:37:44.831Z,0.062
2023-05-15T01:39:44.831Z,0.058
2023-05-15T01:41:44.945Z,0.057
2023-05-15T01:43:44.665Z,0.057
2023-05-15T01:45:44.838Z,0.058
2023-05-15T01:47:44.703Z,0.057
2023-05-15T01:49:44.659Z,0.057
2023-05-15T01:51:44.701Z,0.059
2023-05-15T01:53:44.703Z,0.061
2023-05-15T01:55:44.829Z,0.057
2023-05-15T01:57:44.724Z,0.057
2023-05-15T01:59:44.741Z,0.053
2023-05-15T02:01:44.773Z,0.057
2023-05-15T02:03:44.878Z,0.059
2023-05-15T02:05:44.678Z,0.061
2023-05-15T02:07:44.769Z,0.059
2023-05-15T02:09:44.796Z,0.061
2023-05-15T02:11:44.802Z,0.062
2023-05-15T02:13:44.762Z,0.063
2023-05-15T02:15:44.883Z,0.065
2023-05-15T02:17:46.789Z,0.061
2023-05-15T02:19:44.743Z,0.061
2023-05-15T02:21:44.775Z,0.060
2023-05-15T02:23:44.737Z,0.060
2023-05-15T02:25:44.763Z,0.060
2023-05-15T02:27:46.206Z,0.057
2023-05-15T02:29:46.271Z,0.056
2023-05-15T02:31:44.787Z,0.058
2023-05-15T02:33:44.925Z,0.059
2023-05-15T02:35:46.052Z,0.059
2023-05-15T02:37:44.741Z,0.061
2023-05-15T02:39:44.885Z,0.062
2023-05-15T02:41:44.739Z,0.062
2023-05-15T02:43:44.724Z,0.064
2023-05-15T02:45:44.817Z,0.063
2023-05-15T02:47:45.175Z,0.063
2023-05-15T02:49:44.763Z,0.063
2023-05-15T02:51:44.772Z,0.063
2023-05-15T02:53:44.789Z,0.065
2023-05-15T02:55:44.793Z,0.064
2023-05-15T02:57:44.823Z,0.065
2023-05-15T02:59:44.740Z,0.066
2023-05-15T03:01:45.541Z,0.045
2023-05-15T03:03:44.834Z,0.037
2023-05-15T03:05:44.822Z,0.054
2023-05-15T03:07:44.731Z,0.055
2023-05-15T03:09:44.714Z,0.050
2023-05-15T03:11:44.828Z,0.046
2023-05-15T03:13:44.774Z,0.052
2023-05-15T03:15:44.930Z,0.055
2023-05-15T03:17:44.823Z,0.052
2023-05-15T03:19:46.709Z,0.057
2023-05-15T03:21:44.823Z,0.058
2023-05-15T03:23:44.861Z,0.060
2023-05-15T03:25:46.962Z,0.062
2023-05-15T03:27:44.748Z,0.064
2023-05-15T03:29:44.811Z,0.061
2023-05-15T03:31:44.918Z,0.059
2023-05-15T03:33:44.863Z,0.059
2023-05-15T03:35:50.882Z,0.059
2023-05-15T03:37:44.782Z,0.062
2023-05-15T03:39:45.044Z,0.063
2023-05-15T03:41:44.857Z,0.061
2023-05-15T03:43:45.020Z,0.061
2023-05-15T03:46:44.769Z,0.059
2023-05-15T03:48:44.769Z,0.057
2023-05-15T03:50:46.741Z,0.058
2023-05-15T03:52:49.687Z,0.057
2023-05-15T03:54:45.518Z,0.057
2023-05-15T03:56:44.833Z,0.058
2023-05-15T03:58:44.769Z,0.058
2023-05-15T04:00:45.118Z,0.057
2023-05-15T04:02:44.898Z,0.058
2023-05-15T04:04:45.070Z,0.059
2023-05-15T04:06:50.670Z,0.058
2023-05-15T04:08:45.125Z,0.059
2023-05-15T04:10:44.844Z,0.060
2023-05-15T04:12:44.782Z,0.058
2023-05-15T04:14:44.916Z,0.057
2023-05-15T04:16:44.956Z,0.058
2023-05-15T04:18:44.852Z,0.058
2023-05-15T04:20:45.875Z,0.060
2023-05-15T04:22:48.124Z,0.059
2023-05-15T04:24:44.825Z,0.060
2023-05-15T04:26:44.843Z,0.057
2023-05-15T04:28:56.193Z,0.058
2023-05-15T04:30:44.814Z,0.060
2023-05-15T04:32:45.101Z,0.062
2023-05-15T04:34:45.052Z,0.064
2023-05-15T04:36:44.863Z,0.063
2023-05-15T04:38:45.268Z,0.062
2023-05-15T04:40:44.973Z,0.063
2023-05-15T04:42:44.998Z,0.064
2023-05-15T04:44:47.333Z,0.066
2023-05-15T04:46:44.802Z,0.068
2023-05-15T04:48:44.987Z,0.070
2023-05-15T04:50:44.807Z,0.070
2023-05-15T04:52:47.742Z,0.070
2023-05-15T04:54:44.788Z,0.070
2023-05-15T04:56:44.856Z,0.068
2023-05-15T04:58:45.070Z,0.067
2023-05-15T05:00:45.150Z,0.068
2023-05-15T05:02:48.282Z,0.068
2023-05-15T05:04:44.813Z,0.069
2023-05-15T05:06:44.838Z,0.071
2023-05-15T05:08:44.902Z,0.071
2023-05-15T05:10:44.862Z,0.069
2023-05-15T05:12:44.848Z,0.071
2023-05-15T05:14:44.989Z,0.072
2023-05-15T05:16:44.778Z,0.071
2023-05-15T05:18:45.053Z,0.070
2023-05-15T05:20:45.003Z,0.068
2023-05-15T05:22:45.950Z,0.070
2023-05-15T05:24:44.926Z,0.069
2023-05-15T05:26:44.830Z,0.070
2023-05-15T05:28:47.462Z,0.071
2023-05-15T05:30:47.627Z,0.070
2023-05-15T05:32:45.167Z,0.069
2023-05-15T05:34:45.104Z,0.068
2023-05-15T05:36:44.873Z,0.069
2023-05-15T05:38:44.993Z,0.070
2023-05-15T05:40:44.910Z,0.067
2023-05-15T05:42:44.848Z,0.066
2023-05-15T05:44:47.708Z,0.067
2023-05-15T05:46:44.857Z,0.065
2023-05-15T05:48:44.902Z,0.063
2023-05-15T05:50:44.907Z,0.064
2023-05-15T05:52:47.581Z,0.065
2023-05-15T05:54:44.950Z,0.064
2023-05-15T05:56:50.707Z,0.067
2023-05-15T05:58:47.841Z,0.066
2023-05-15T06:00:52.164Z,0.066
2023-05-15T06:02:47.472Z,0.064
2023-05-15T06:04:44.804Z,0.064
2023-05-15T06:06:44.922Z,0.064
2023-05-15T06:08:45.056Z,0.066
2023-05-15T06:10:49.500Z,0.066
2023-05-15T06:12:44.838Z,0.068
2023-05-15T06:14:45.000Z,0.067
2023-05-15T06:16:44.984Z,0.068
2023-05-15T06:18:44.976Z,0.067
2023-05-15T06:20:44.936Z,0.066
2023-05-15T06:22:44.874Z,0.065
2023-05-15T06:24:50.811Z,0.066
2023-05-15T06:26:44.850Z,0.065
2023-05-15T06:28:56.819Z,0.065
2023-05-15T06:30:50.983Z,0.065
2023-05-15T06:33:00.109Z,0.066
2023-05-15T06:34:44.941Z,0.065
2023-05-15T06:36:45.028Z,0.064
2023-05-15T06:38:50.780Z,0.064
2023-05-15T06:40:53.386Z,0.065
2023-05-15T06:42:50.630Z,0.066
2023-05-15T06:44:44.945Z,0.065
2023-05-15T06:46:48.043Z,0.067
2023-05-15T06:48:47.671Z,0.068
2023-05-15T06:50:45.005Z,0.069
2023-05-15T06:53:08.140Z,0.068
2023-05-15T06:54:59.321Z,0.069
2023-05-15T06:57:05.506Z,0.069
2023-05-15T06:58:59.354Z,0.068
2023-05-15T07:01:13.822Z,0.070
2023-05-15T07:03:11.529Z,0.072
2023-05-15T07:04:59.526Z,0.073
2023-05-15T07:06:59.545Z,0.072
2023-05-15T07:08:59.381Z,0.068
2023-05-15T07:10:59.293Z,0.071
2023-05-15T07:13:03.218Z,0.069
2023-05-15T07:14:59.293Z,0.071
2023-05-15T07:17:05.023Z,0.071
2023-05-15T07:19:08.385Z,0.071
2023-05-15T07:21:02.196Z,0.072
2023-05-15T07:22:59.299Z,0.070
2023-05-15T07:25:03.363Z,0.071
2023-05-15T07:27:03.897Z,0.072
2023-05-15T07:28:59.323Z,0.070
2023-05-15T07:31:05.286Z,0.070
2023-05-15T07:32:59.726Z,0.070
2023-05-15T07:34:59.319Z,0.074
2023-05-15T07:36:59.336Z,0.072
2023-05-15T07:38:59.365Z,0.073
2023-05-15T07:41:05.123Z,0.073
2023-05-15T07:42:59.473Z,0.072
2023-05-15T07:44:59.295Z,0.074
2023-05-15T07:47:02.260Z,0.074
2023-05-15T07:48:59.375Z,0.073
2023-05-15T07:50:59.296Z,0.074
2023-05-15T07:52:59.495Z,0.076
2023-05-15T07:54:59.443Z,0.075
2023-05-15T07:56:59.324Z,0.074
2023-05-15T07:58:59.374Z,0.074
2023-05-15T08:00:59.329Z,0.075
2023-05-15T08:02:59.509Z,0.075
2023-05-15T08:04:59.307Z,0.072
2023-05-15T08:06:59.362Z,0.073
2023-05-15T08:08:59.452Z,0.073
2023-05-15T08:10:59.380Z,0.075
2023-05-15T08:12:59.497Z,0.074
2023-05-15T08:14:59.353Z,0.073
2023-05-15T08:17:03.007Z,0.072
2023-05-15T08:19:59.309Z,0.072
2023-05-15T08:22:02.049Z,0.074
2023-05-15T08:23:02.140Z,0.075
2023-05-15T08:25:12.708Z,0.075
2023-05-15T08:27:13.775Z,0.076
2023-05-15T08:30:13.663Z,0.076
2023-05-15T08:31:08.429Z,0.076
2023-05-15T08:33:59.460Z,0.072
2023-05-15T08:35:59.390Z,0.073
2023-05-15T08:38:11.442Z,0.074
2023-05-15T08:39:59.362Z,0.073
2023-05-15T08:41:08.413Z,0.071
2023-05-15T08:43:59.429Z,0.072
2023-05-15T08:45:59.361Z,0.069
2023-05-15T08:47:59.554Z,0.069
2023-05-15T08:49:59.338Z,0.073
2023-05-15T08:52:08.155Z,0.071
2023-05-15T08:53:59.369Z,0.070
2023-05-15T08:55:59.399Z,0.071
2023-05-15T08:58:01.972Z,0.073
2023-05-15T09:00:00.056Z,0.073
2023-05-15T09:02:13.732Z,0.072
2023-05-15T09:03:59.667Z,0.071
2023-05-15T09:05:59.488Z,0.070
2023-05-15T09:08:13.663Z,0.072
2023-05-15T09:10:03.004Z,0.069
2023-05-15T09:11:59.359Z,0.066
2023-05-15T09:13:59.385Z,0.065
2023-05-15T09:15:59.470Z,0.065
2023-05-15T09:17:59.505Z,0.064
2023-05-15T09:19:59.376Z,0.064
2023-05-15T09:21:59.405Z,0.063
2023-05-15T09:23:59.354Z,0.061
2023-05-15T09:25:59.566Z,0.058
2023-05-15T09:27:59.390Z,0.058
2023-05-15T09:29:59.391Z,0.058
2023-05-15T09:31:59.471Z,0.062
2023-05-15T09:33:59.421Z,0.063
2023-05-15T09:35:59.510Z,0.061
2023-05-15T09:37:59.475Z,0.060
2023-05-15T09:39:59.462Z,0.061
2023-05-15T09:41:59.433Z,0.059
2023-05-15T09:43:59.409Z,0.059
2023-05-15T09:45:59.526Z,0.058
2023-05-15T09:47:59.825Z,0.059
2023-05-15T09:49:59.420Z,0.055
2023-05-15T09:51:59.399Z,0.057
2023-05-15T09:53:59.420Z,0.056
2023-05-15T09:55:59.451Z,0.058
2023-05-15T09:58:04.388Z,0.056
2023-05-15T10:00:02.058Z,0.058
2023-05-15T10:01:59.754Z,0.058
2023-05-15T10:03:59.454Z,0.059
2023-05-15T10:06:02.450Z,0.059
2023-05-15T10:07:59.436Z,0.059
2023-05-15T10:10:00.531Z,0.063
2023-05-15T10:11:59.426Z,0.065
2023-05-15T10:13:59.404Z,0.065
2023-05-15T10:15:59.763Z,0.067
2023-05-15T10:17:59.568Z,0.067
2023-05-15T10:19:59.470Z,0.068
2023-05-15T10:21:59.463Z,0.069
2023-05-15T10:23:59.404Z,0.071
2023-05-15T10:26:02.210Z,0.071
2023-05-15T10:28:02.116Z,0.072
2023-05-15T10:29:59.452Z,0.071
2023-05-15T10:32:08.156Z,0.070
2023-05-15T10:33:59.523Z,0.070
2023-05-15T10:35:59.485Z,0.071
2023-05-15T10:38:02.387Z,0.072
2023-05-15T10:39:59.516Z,0.072
2023-05-15T10:41:59.478Z,0.073
2023-05-15T10:43:59.583Z,0.073
2023-05-15T10:46:05.180Z,0.072
2023-05-15T10:47:59.584Z,0.071
2023-05-15T10:50:06.127Z,0.073
2023-05-15T10:52:00.408Z,0.071
2023-05-15T10:53:59.574Z,0.071
2023-05-15T10:56:08.297Z,0.071
2023-05-15T10:57:59.518Z,0.071
2023-05-15T10:59:59.522Z,0.069
2023-05-15T11:02:02.612Z,0.067
2023-05-15T11:04:05.547Z,0.068
2023-05-15T11:05:59.490Z,0.068
2023-05-15T11:08:02.271Z,0.066
2023-05-15T11:09:59.528Z,0.066
2023-05-15T11:11:59.553Z,0.064
2023-05-15T11:13:59.521Z,0.065
2023-05-15T11:15:59.518Z,0.064
2023-05-15T11:17:59.750Z,0.066
2023-05-15T11:19:59.452Z,0.065
2023-05-15T11:21:59.565Z,0.064
2023-05-15T11:23:59.591Z,0.062
2023-05-15T11:25:59.524Z,0.064
2023-05-15T11:28:11.839Z,0.064
2023-05-15T11:29:59.694Z,0.063
2023-05-15T11:31:59.568Z,0.062
2023-05-15T11:34:02.129Z,0.062
2023-05-15T11:35:59.540Z,0.062
2023-05-15T11:37:59.497Z,0.060
2023-05-15T11:40:02.315Z,0.060
2023-05-15T11:42:00.960Z,0.062
2023-05-15T11:43:59.588Z,0.066
2023-05-15T11:45:59.708Z,0.067
2023-05-15T11:47:59.667Z,0.067
2023-05-15T11:50:13.795Z,0.067
2023-05-15T11:52:13.794Z,0.067
2023-05-15T11:54:08.401Z,0.066
2023-05-15T11:55:59.570Z,0.065
2023-05-15T11:57:59.684Z,0.066
2023-05-15T12:00:02.295Z,0.064
2023-05-15T12:02:13.809Z,0.066
2023-05-15T12:04:14.161Z,0.066
2023-05-15T12:06:02.356Z,0.065
2023-05-15T12:08:13.794Z,0.066
2023-05-15T12:11:11.916Z,0.065
2023-05-15T12:12:05.096Z,0.066
2023-05-15T12:14:02.505Z,0.065
2023-05-15T12:17:02.417Z,0.061
2023-05-15T12:18:59.586Z,0.060
2023-05-15T12:20:59.542Z,0.060
2023-05-15T12:23:05.848Z,0.060
2023-05-15T12:25:05.230Z,0.061
2023-05-15T12:26:59.530Z,0.057
2023-05-15T12:28:59.562Z,0.056
2023-05-15T12:30:59.614Z,0.057
2023-05-15T12:33:02.708Z,0.055
2023-05-15T12:35:02.426Z,0.053
2023-05-15T12:36:14.469Z,0.053
2023-05-15T12:38:59.544Z,0.053
2023-05-15T12:40:59.593Z,0.053
2023-05-15T12:43:02.657Z,0.049
2023-05-15T12:45:02.363Z,0.049
2023-05-15T12:46:59.615Z,0.048
2023-05-15T12:50:29.625Z,0.050
2023-05-15T12:52:27.256Z,0.050
2023-05-15T12:54:27.162Z,0.050
2023-05-15T12:56:27.209Z,0.051
2023-05-15T12:58:33.213Z,0.049
2023-05-15T13:00:29.869Z,0.050
2023-05-15T13:02:30.401Z,0.051
2023-05-15T13:04:33.012Z,0.050
2023-05-15T13:06:31.986Z,0.050
2023-05-15T13:08:27.105Z,0.053
2023-05-15T13:10:27.366Z,0.052
2023-05-15T13:12:27.440Z,0.053
2023-05-15T13:14:27.083Z,0.054
2023-05-15T13:16:33.350Z,0.056
2023-05-15T13:18:27.129Z,0.059
2023-05-15T13:20:27.608Z,0.061
2023-05-15T13:22:28.043Z,0.063
2023-05-15T13:24:27.156Z,0.060
2023-05-15T13:26:27.255Z,0.061
2023-05-15T13:28:27.223Z,0.065
2023-05-15T13:30:33.301Z,0.065
2023-05-15T13:32:41.468Z,0.067
2023-05-15T13:34:33.017Z,0.068
2023-05-15T13:36:27.195Z,0.068
2023-05-15T13:38:39.154Z,0.070
2023-05-15T13:40:27.343Z,0.070
2023-05-15T13:42:29.993Z,0.072
2023-05-15T13:44:27.125Z,0.071
2023-05-15T13:46:29.897Z,0.071
2023-05-15T13:48:30.217Z,0.070
2023-05-15T13:51:33.198Z,0.067
2023-05-15T13:53:27.210Z,0.069
2023-05-15T13:54:32.989Z,0.068
2023-05-15T13:56:35.790Z,0.066
2023-05-15T13:58:29.909Z,0.068
2023-05-15T14:01:27.347Z,0.069
2023-05-15T14:03:27.270Z,0.068
2023-05-15T14:05:29.960Z,0.069
2023-05-15T14:06:35.511Z,0.070
2023-05-15T14:09:32.984Z,0.068
2023-05-15T14:11:27.192Z,0.068
2023-05-15T14:13:29.741Z,0.066
2023-05-15T14:15:27.411Z,0.065
2023-05-15T14:17:30.102Z,0.063
2023-05-15T14:19:38.984Z,0.063
2023-05-15T14:21:30.359Z,0.064
2023-05-15T14:22:41.583Z,0.063
2023-05-15T14:25:39.114Z,0.063
2023-05-15T14:27:37.352Z,0.061
2023-05-15T14:29:27.206Z,0.059
2023-05-15T14:31:27.499Z,0.058
2023-05-15T14:32:48.308Z,0.057
2023-05-15T14:35:30.168Z,0.055
2023-05-15T14:37:27.335Z,0.054
2023-05-15T14:39:27.257Z,0.054
2023-05-15T14:41:40.306Z,0.053
2023-05-15T14:43:27.251Z,0.054
2023-05-15T14:45:27.333Z,0.054
2023-05-15T14:47:27.239Z,0.054
2023-05-15T14:49:27.453Z,0.054
2023-05-15T14:51:32.970Z,0.056
2023-05-15T14:53:27.214Z,0.054
2023-05-15T14:55:32.898Z,0.055
2023-05-15T14:57:27.538Z,0.057
2023-05-15T14:59:27.188Z,0.056
2023-05-15T15:01:27.245Z,0.055
2023-05-15T15:03:29.043Z,0.055
2023-05-15T15:05:27.336Z,0.053
2023-05-15T15:07:27.291Z,0.052
2023-05-15T15:09:39.164Z,0.051
2023-05-15T15:11:39.186Z,0.051
2023-05-15T15:13:27.282Z,0.053
2023-05-15T15:15:27.196Z,0.056
2023-05-15T15:17:27.435Z,0.057
2023-05-15T15:19:30.491Z,0.056
2023-05-15T15:21:27.231Z,0.056
2023-05-15T15:23:27.227Z,0.058
2023-05-15T15:25:36.163Z,0.058
2023-05-15T15:27:27.329Z,0.060
2023-05-15T15:29:27.202Z,0.063
2023-05-15T15:31:36.112Z,0.062
2023-05-15T15:33:30.065Z,0.061
2023-05-15T15:35:30.067Z,0.062
2023-05-15T15:37:39.164Z,0.061
2023-05-15T15:39:30.095Z,0.062
2023-05-15T15:41:27.321Z,0.063
2023-05-15T15:43:27.376Z,0.062
2023-05-15T15:45:27.319Z,0.062
2023-05-15T15:47:36.295Z,0.061
2023-05-15T15:49:27.411Z,0.063
2023-05-15T15:51:27.556Z,0.063
2023-05-15T15:53:39.314Z,0.063
2023-05-15T15:55:33.311Z,0.063
2023-05-15T15:57:27.919Z,0.061
2023-05-15T15:59:27.281Z,0.060
2023-05-15T16:01:41.737Z,0.060
2023-05-15T16:03:33.058Z,0.060
2023-05-15T16:05:33.355Z,0.061
2023-05-15T16:07:27.249Z,0.063
2023-05-15T16:09:29.403Z,0.065
2023-05-15T16:11:27.512Z,0.065
2023-05-15T16:13:28.411Z,0.062
2023-05-15T16:15:29.297Z,0.061
2023-05-15T16:17:36.608Z,0.060
2023-05-15T16:19:27.601Z,0.060
2023-05-15T16:21:37.458Z,0.058
2023-05-15T16:23:27.428Z,0.058
2023-05-15T16:25:27.304Z,0.058
2023-05-15T16:27:27.354Z,0.056
2023-05-15T16:29:27.351Z,0.056
2023-05-15T16:31:27.338Z,0.057
2023-05-15T16:33:27.552Z,0.060
2023-05-15T16:35:30.091Z,0.060
2023-05-15T16:37:27.539Z,0.061
2023-05-15T16:39:27.395Z,0.058
2023-05-15T16:41:27.414Z,0.057
2023-05-15T16:43:27.382Z,0.056
2023-05-15T16:45:27.818Z,0.057
2023-05-15T16:47:27.364Z,0.059
2023-05-15T16:49:27.474Z,0.056
2023-05-15T16:51:27.303Z,0.055
2023-05-15T16:53:27.539Z,0.057
2023-05-15T16:55:27.397Z,0.058
2023-05-15T16:57:30.310Z,0.057
2023-05-15T16:59:30.450Z,0.057
2023-05-15T17:01:30.076Z,0.059
2023-05-15T17:03:27.896Z,0.061
2023-05-15T17:05:42.143Z,0.060
2023-05-15T17:07:27.629Z,0.059
2023-05-15T17:09:41.815Z,0.057
2023-05-15T17:11:32.510Z,0.058
2023-05-15T17:13:27.817Z,0.057
2023-05-15T17:15:30.142Z,0.056
2023-05-15T17:17:36.259Z,0.055
2023-05-15T17:19:27.482Z,0.055
2023-05-15T17:21:30.252Z,0.057
2023-05-15T17:23:30.254Z,0.055
2023-05-15T17:25:27.541Z,0.055
2023-05-15T17:27:27.386Z,0.055
2023-05-15T17:29:27.298Z,0.054
2023-05-15T17:31:28.358Z,0.054
2023-05-15T17:33:27.396Z,0.054
2023-05-15T17:35:32.773Z,0.053
2023-05-15T17:38:27.380Z,0.053
2023-05-15T17:40:27.407Z,0.055
2023-05-15T17:41:36.372Z,0.055
2023-05-15T17:44:27.374Z,0.054
2023-05-15T17:45:39.630Z,0.055
2023-05-15T17:48:33.277Z,0.053
2023-05-15T17:50:39.454Z,0.054
2023-05-15T17:52:27.304Z,0.051
2023-05-15T17:54:41.616Z,0.052
2023-05-15T17:56:27.332Z,0.054
2023-05-15T17:58:27.379Z,0.055
2023-05-15T18:00:30.151Z,0.055
2023-05-15T18:02:27.382Z,0.055
2023-05-15T18:04:33.151Z,0.055
2023-05-15T18:06:27.438Z,0.057
2023-05-15T18:08:30.398Z,0.057
2023-05-15T18:10:41.643Z,0.054
2023-05-15T18:12:27.345Z,0.053
2023-05-15T18:14:40.477Z,0.053
2023-05-15T18:16:36.813Z,0.053
2023-05-15T18:17:39.338Z,0.054
2023-05-15T18:20:27.519Z,0.051
2023-05-15T18:22:27.584Z,0.053
2023-05-15T18:24:27.369Z,0.054
2023-05-15T18:26:30.060Z,0.054
2023-05-15T18:28:27.396Z,0.054
2023-05-15T18:30:27.402Z,0.054
2023-05-15T18:32:27.497Z,0.053
2023-05-15T18:34:27.559Z,0.053
2023-05-15T18:36:29.949Z,0.055
2023-05-15T18:38:27.438Z,0.058
2023-05-15T18:40:27.469Z,0.058
2023-05-15T18:42:30.625Z,0.060
2023-05-15T18:44:32.952Z,0.060
2023-05-15T18:46:54.669Z,0.060
2023-05-15T18:47:53.566Z,0.062
2023-05-15T18:49:53.607Z,0.063
2023-05-15T18:52:44.716Z,0.064
2023-05-15T18:54:44.835Z,0.065
2023-05-15T18:56:47.681Z,0.065
2023-05-15T18:57:58.978Z,0.064
2023-05-15T19:00:44.749Z,0.063
2023-05-15T19:02:44.937Z,0.063
2023-05-15T19:04:44.810Z,0.063
2023-05-15T19:06:50.730Z,0.062
2023-05-15T19:07:59.033Z,0.062
2023-05-15T19:10:44.795Z,0.064
2023-05-15T19:12:44.775Z,0.066
2023-05-15T19:14:44.801Z,0.068
2023-05-15T19:16:47.814Z,0.070
2023-05-15T19:18:44.784Z,0.070
2023-05-15T19:20:44.762Z,0.073
2023-05-15T19:22:44.736Z,0.073
2023-05-15T19:24:44.692Z,0.073
2023-05-15T19:26:49.596Z,0.073
2023-05-15T19:28:44.700Z,0.075
2023-05-15T19:30:50.814Z,0.074
2023-05-15T19:32:47.696Z,0.073
2023-05-15T19:34:47.552Z,0.073
2023-05-15T19:36:53.873Z,0.074
2023-05-15T19:38:44.745Z,0.071
2023-05-15T19:40:47.757Z,0.071
2023-05-15T19:42:47.677Z,0.069
2023-05-15T19:44:44.737Z,0.068
2023-05-15T19:46:44.864Z,0.067
2023-05-15T19:48:56.669Z,0.065
2023-05-15T19:50:47.808Z,0.067
2023-05-15T19:52:45.518Z,0.064
2023-05-15T19:54:44.729Z,0.064
2023-05-15T19:56:47.970Z,0.065
2023-05-15T19:58:44.795Z,0.066
2023-05-15T20:00:49.272Z,0.066
2023-05-15T20:02:45.536Z,0.067
2023-05-15T20:04:44.715Z,0.069
2023-05-15T20:06:44.779Z,0.069
2023-05-15T20:08:44.748Z,0.069
2023-05-15T20:10:44.711Z,0.070
2023-05-15T20:12:44.692Z,0.069
2023-05-15T20:14:44.818Z,0.071
2023-05-15T20:16:44.856Z,0.067
2023-05-15T20:18:44.759Z,0.069
2023-05-15T20:20:50.572Z,0.067
2023-05-15T20:22:44.768Z,0.068
2023-05-15T20:24:44.721Z,0.068
2023-05-15T20:26:44.798Z,0.070
2023-05-15T20:28:47.928Z,0.069
2023-05-15T20:30:50.677Z,0.069
2023-05-15T20:32:44.795Z,0.069
2023-05-15T20:34:44.885Z,0.069
2023-05-15T20:36:44.857Z,0.068
2023-05-15T20:38:44.830Z,0.067
2023-05-15T20:40:44.749Z,0.066
2023-05-15T20:42:45.774Z,0.066
2023-05-15T20:44:44.799Z,0.067
2023-05-15T20:46:44.824Z,0.066
2023-05-15T20:48:47.369Z,0.066
2023-05-15T20:50:44.860Z,0.065
2023-05-15T20:52:44.939Z,0.067
2023-05-15T20:54:44.801Z,0.065
2023-05-15T20:56:44.780Z,0.062
2023-05-15T20:58:53.836Z,0.060
2023-05-15T21:00:44.981Z,0.060
2023-05-15T21:02:44.931Z,0.059
2023-05-15T21:04:44.765Z,0.058
2023-05-15T21:06:44.790Z,0.058
2023-05-15T21:08:44.788Z,0.057
2023-05-15T21:10:44.770Z,0.057
2023-05-15T21:12:44.803Z,0.057
2023-05-15T21:14:44.812Z,0.055
2023-05-15T21:16:47.818Z,0.056
2023-05-15T21:18:54.009Z,0.055
2023-05-15T21:20:44.855Z,0.054
2023-05-15T21:22:44.798Z,0.053
2023-05-15T21:24:44.833Z,0.051
2023-05-15T21:26:44.866Z,0.051
2023-05-15T21:28:44.897Z,0.049
2023-05-15T21:30:44.864Z,0.050
2023-05-15T21:32:44.907Z,0.049
2023-05-15T21:34:44.841Z,0.050
2023-05-15T21:36:45.090Z,0.050
2023-05-15T21:38:44.781Z,0.050
2023-05-15T21:40:44.899Z,0.053
2023-05-15T21:42:50.521Z,0.053
2023-05-15T21:44:44.822Z,0.053
2023-05-15T21:46:44.932Z,0.055
2023-05-15T21:48:44.944Z,0.055
2023-05-15T21:50:45.136Z,0.055
2023-05-15T21:52:44.897Z,0.054
2023-05-15T21:54:44.802Z,0.055
2023-05-15T21:56:44.840Z,0.058
2023-05-15T21:58:44.807Z,0.057
2023-05-15T22:00:48.336Z,0.056
2023-05-15T22:02:44.894Z,0.058
2023-05-15T22:04:44.913Z,0.057
2023-05-15T22:06:44.882Z,0.058
2023-05-15T22:08:45.125Z,0.058
2023-05-15T22:10:44.852Z,0.059
2023-05-15T22:13:45.056Z,0.059
2023-05-15T22:15:44.851Z,0.061
2023-05-15T22:17:44.920Z,0.061
2023-05-15T22:19:44.921Z,0.061
2023-05-15T22:21:50.623Z,0.063
2023-05-15T22:23:47.883Z,0.065
2023-05-15T22:25:44.801Z,0.065
2023-05-15T22:27:44.858Z,0.065
2023-05-15T22:29:47.233Z,0.065
2023-05-15T22:31:49.063Z,0.067
2023-05-15T22:33:45.188Z,0.066
2023-05-15T22:35:44.848Z,0.067
2023-05-15T22:37:44.895Z,0.066
2023-05-15T22:39:44.965Z,0.066
2023-05-15T22:41:44.859Z,0.065
2023-05-15T22:43:44.912Z,0.066
2023-05-15T22:45:44.970Z,0.067
2023-05-15T22:47:44.876Z,0.067
2023-05-15T22:49:44.924Z,0.069
2023-05-15T22:51:45.019Z,0.068
2023-05-15T22:53:44.828Z,0.071
2023-05-15T22:55:44.875Z,0.072
2023-05-15T22:57:44.850Z,0.070
2023-05-15T22:59:44.839Z,0.073
2023-05-15T23:00:59.237Z,0.073
2023-05-15T23:03:50.701Z,0.078
2023-05-15T23:05:44.878Z,0.067
2023-05-15T23:07:44.804Z,0.073
2023-05-15T23:09:48.059Z,0.075
2023-05-15T23:11:44.841Z,0.081
2023-05-15T23:13:44.837Z,0.084
2023-05-15T23:15:44.959Z,0.085
2023-05-15T23:17:44.943Z,0.085
2023-05-15T23:19:46.735Z,0.080
2023-05-15T23:21:44.919Z,0.076
2023-05-15T23:23:45.113Z,0.071
2023-05-15T23:25:45.051Z,0.072
2023-05-15T23:27:44.884Z,0.070
2023-05-15T23:29:44.895Z,0.068
2023-05-15T23:31:45.168Z,0.068
2023-05-15T23:33:45.094Z,0.068
2023-05-15T23:35:44.914Z,0.065
2023-05-15T23:37:44.977Z,0.063
2023-05-15T23:39:45.201Z,0.062
2023-05-15T23:41:44.989Z,0.063
2023-05-15T23:43:45.027Z,0.064
2023-05-15T23:45:44.902Z,0.066
2023-05-15T23:47:44.925Z,0.065
2023-05-15T23:49:45.061Z,0.066
2023-05-15T23:51:44.889Z,0.067
2023-05-15T23:53:44.882Z,0.066
2023-05-15T23:55:44.866Z,0.064
2023-05-15T23:57:44.868Z,0.063
2023-05-15T23:59:45.473Z,0.062
